createdAt,value
2019-05-07T00:00:00.037Z,47.63
2019-05-07T00:02:17.692Z,48.78
2019-05-07T00:04:25.140Z,49.39
2019-05-07T00:06:32.658Z,48.95
2019-05-07T00:08:39.990Z,49.95
2019-05-07T00:10:47.316Z,49.84
2019-05-07T00:12:55.029Z,50.26
2019-05-07T00:15:04.561Z,50.89
2019-05-07T00:17:13.097Z,50.41
2019-05-07T00:19:20.493Z,50.15
2019-05-07T00:21:27.833Z,51.24
2019-05-07T00:23:35.195Z,51.11
2019-05-07T00:25:42.406Z,51.27
2019-05-07T00:27:52.171Z,51.34
2019-05-07T00:29:58.842Z,50.66
2019-05-07T00:32:06.138Z,51.06
2019-05-07T00:34:14.644Z,51.85
2019-05-07T00:36:47.003Z,52.02
2019-05-07T00:39:00.209Z,51.21
2019-05-07T00:41:24.385Z,51.20
2019-05-07T00:43:34.915Z,52.26
2019-05-07T00:45:56.830Z,52.36
2019-05-07T00:48:03.523Z,52.13
2019-05-07T00:50:16.584Z,52.65
2019-05-07T00:52:23.923Z,52.01
2019-05-07T00:54:32.507Z,52.80
2019-05-07T00:56:39.913Z,53.23
2019-05-07T00:58:47.317Z,53.73
2019-05-07T01:00:54.626Z,52.93
2019-05-07T01:03:03.038Z,53.37
2019-05-07T01:05:12.289Z,53.51
2019-05-07T01:07:19.618Z,53.56
2019-05-07T01:09:26.930Z,53.75
2019-05-07T01:11:34.605Z,53.08
2019-05-07T01:13:43.201Z,53.82
2019-05-07T01:15:52.983Z,54.45
2019-05-07T01:17:59.519Z,54.70
2019-05-07T01:20:07.144Z,53.94
2019-05-07T01:22:14.494Z,54.36
2019-05-07T01:24:23.306Z,54.69
2019-05-07T01:26:32.950Z,55.11
2019-05-07T01:28:57.653Z,54.53
2019-05-07T01:31:05.069Z,55.51
2019-05-07T01:33:26.816Z,54.70
2019-05-07T01:35:52.882Z,55.24
2019-05-07T01:38:00.268Z,56.01
2019-05-07T01:40:07.645Z,55.84
2019-05-07T01:42:14.947Z,54.05
2019-05-07T01:44:22.324Z,54.56
2019-05-07T01:46:29.465Z,54.73
2019-05-07T01:48:36.791Z,55.36
2019-05-07T01:50:44.120Z,53.95
2019-05-07T01:52:52.236Z,55.24
2019-05-07T01:54:59.699Z,55.80
2019-05-07T01:57:07.116Z,55.64
2019-05-07T01:59:14.425Z,54.60
2019-05-07T02:01:22.185Z,56.03
2019-05-07T02:03:42.022Z,55.71
2019-05-07T02:05:54.624Z,55.84
2019-05-07T02:08:04.339Z,57.16
2019-05-07T02:10:33.505Z,56.76
2019-05-07T02:12:42.548Z,56.63
2019-05-07T02:14:49.961Z,57.76
2019-05-07T02:16:57.304Z,58.24
2019-05-07T02:19:04.963Z,58.10
2019-05-07T02:21:13.220Z,58.99
2019-05-07T02:23:22.183Z,59.31
2019-05-07T02:25:29.579Z,58.97
2019-05-07T02:27:36.853Z,59.44
2019-05-07T02:29:44.358Z,59.85
2019-05-07T02:31:53.113Z,59.98
2019-05-07T02:34:02.819Z,60.29
2019-05-07T02:36:09.700Z,60.58
2019-05-07T02:38:33.662Z,60.31
2019-05-07T02:40:53.374Z,59.08
2019-05-07T02:43:02.683Z,60.88
2019-05-07T02:45:26.769Z,60.98
2019-05-07T02:47:34.948Z,60.17
2019-05-07T02:49:49.258Z,62.10
2019-05-07T02:52:04.815Z,60.64
2019-05-07T02:54:26.964Z,61.12
2019-05-07T02:56:34.126Z,61.35
2019-05-07T02:58:43.388Z,60.15
2019-05-07T03:00:52.977Z,62.00
2019-05-07T03:02:59.383Z,63.22
2019-05-07T03:05:07.132Z,63.08
2019-05-07T03:07:14.503Z,61.46
2019-05-07T03:09:22.745Z,63.06
2019-05-07T03:11:33.650Z,63.46
2019-05-07T03:13:39.603Z,63.50
2019-05-07T03:15:47.121Z,62.09
2019-05-07T03:17:54.429Z,62.91
2019-05-07T03:20:04.106Z,63.33
2019-05-07T03:22:14.019Z,63.81
2019-05-07T03:24:39.131Z,63.52
2019-05-07T03:26:47.134Z,64.33
2019-05-07T03:28:56.735Z,64.80
2019-05-07T03:31:16.586Z,64.94
2019-05-07T03:33:47.155Z,66.28
2019-05-07T03:35:56.250Z,65.78
2019-05-07T03:38:03.681Z,64.46
2019-05-07T03:40:14.081Z,64.91
2019-05-07T03:42:23.407Z,65.23
2019-05-07T03:44:48.002Z,65.20
2019-05-07T03:47:02.334Z,65.18
2019-05-07T03:49:07.448Z,64.04
2019-05-07T03:51:14.719Z,63.25
2019-05-07T03:53:22.999Z,64.96
2019-05-07T03:55:33.240Z,63.87
2019-05-07T03:57:39.835Z,64.05
2019-05-07T03:59:48.021Z,65.72
2019-05-07T04:01:55.263Z,65.19
2019-05-07T04:04:03.761Z,65.15
2019-05-07T04:06:12.752Z,64.82
2019-05-07T04:08:23.312Z,63.86
2019-05-07T04:10:29.084Z,64.91
2019-05-07T04:12:36.349Z,64.61
2019-05-07T04:14:43.764Z,64.27
2019-05-07T04:16:53.608Z,64.29
2019-05-07T04:19:03.648Z,63.77
2019-05-07T04:21:09.299Z,63.03
2019-05-07T04:23:16.716Z,64.44
2019-05-07T04:25:39.533Z,63.43
2019-05-07T04:28:03.821Z,64.06
2019-05-07T04:30:12.923Z,63.79
2019-05-07T04:32:23.153Z,64.54
2019-05-07T04:34:58.378Z,61.63
2019-05-07T04:37:05.680Z,61.91
2019-05-07T04:39:13.510Z,63.60
2019-05-07T04:41:23.383Z,63.21
2019-05-07T04:43:29.968Z,60.46
2019-05-07T04:45:37.255Z,60.65
2019-05-07T04:47:47.827Z,59.91
2019-05-07T04:49:53.880Z,59.92
2019-05-07T04:52:06.418Z,59.73
2019-05-07T04:54:13.790Z,60.83
2019-05-07T04:56:23.953Z,60.42
2019-05-07T04:58:30.215Z,60.82
2019-05-07T05:00:37.712Z,57.48
2019-05-07T05:03:03.795Z,58.28
2019-05-07T05:05:12.851Z,57.96
2019-05-07T05:07:22.484Z,59.41
2019-05-07T05:09:29.475Z,59.74
2019-05-07T05:11:36.962Z,60.13
2019-05-07T05:13:45.020Z,58.74
2019-05-07T05:15:52.821Z,59.05
2019-05-07T05:18:02.433Z,59.30
2019-05-07T05:20:10.211Z,57.79
2019-05-07T05:22:39.193Z,57.97
2019-05-07T05:24:49.441Z,57.61
2019-05-07T05:26:56.711Z,57.88
2019-05-07T05:29:04.012Z,57.99
2019-05-07T05:31:12.645Z,58.15
2019-05-07T05:33:20.178Z,58.21
2019-05-07T05:35:27.535Z,58.79
2019-05-07T05:37:34.829Z,59.17
2019-05-07T05:39:42.814Z,57.09
2019-05-07T05:41:53.444Z,57.94
2019-05-07T05:44:19.509Z,58.51
2019-05-07T05:46:28.405Z,58.10
2019-05-07T05:48:35.784Z,58.40
2019-05-07T05:50:53.617Z,57.35
2019-05-07T05:53:09.781Z,58.13
2019-05-07T05:55:20.055Z,57.41
2019-05-07T05:57:45.063Z,58.82
2019-05-07T06:00:12.654Z,57.55
2019-05-07T06:02:37.685Z,57.10
2019-05-07T06:04:58.842Z,57.90
2019-05-07T06:07:14.593Z,57.85
2019-05-07T06:09:29.310Z,56.46
2019-05-07T06:11:58.428Z,55.80
2019-05-07T06:14:33.976Z,56.15
2019-05-07T06:16:47.153Z,56.57
2019-05-07T06:19:13.213Z,55.94
2019-05-07T06:21:32.281Z,55.42
2019-05-07T06:23:44.827Z,55.07
2019-05-07T06:25:52.420Z,54.34
2019-05-07T06:28:01.807Z,54.55
2019-05-07T06:30:12.102Z,54.09
2019-05-07T06:32:22.763Z,54.42
2019-05-07T06:34:29.897Z,52.99
2019-05-07T06:36:38.852Z,53.10
2019-05-07T06:38:53.092Z,53.10
2019-05-07T06:41:19.269Z,52.11
2019-05-07T06:43:48.102Z,52.18
2019-05-07T06:45:57.064Z,52.09
2019-05-07T06:48:04.336Z,50.68
2019-05-07T06:50:12.557Z,51.57
2019-05-07T06:52:19.916Z,51.90
2019-05-07T06:54:27.316Z,51.31
2019-05-07T06:56:34.601Z,50.41
2019-05-07T06:58:52.476Z,49.04
2019-05-07T07:01:18.357Z,50.29
2019-05-07T07:03:35.696Z,50.59
2019-05-07T07:06:04.168Z,50.62
2019-05-07T07:08:23.036Z,50.27
2019-05-07T07:10:47.770Z,49.49
2019-05-07T07:12:55.270Z,49.37
2019-05-07T07:15:02.868Z,49.35
2019-05-07T07:17:12.770Z,48.64
2019-05-07T07:19:19.515Z,48.65
2019-05-07T07:21:26.742Z,48.04
2019-05-07T07:23:34.371Z,47.83
2019-05-07T07:25:42.993Z,48.14
2019-05-07T07:27:52.071Z,47.77
2019-05-07T07:30:21.836Z,47.02
2019-05-07T07:32:35.119Z,47.14
2019-05-07T07:34:47.703Z,47.30
2019-05-07T07:37:06.032Z,46.77
2019-05-07T07:39:12.572Z,47.08
2019-05-07T07:41:34.148Z,46.92
2019-05-07T07:43:42.015Z,47.16
2019-05-07T07:45:49.395Z,46.76
2019-05-07T07:47:56.781Z,45.86
2019-05-07T07:50:04.168Z,46.12
2019-05-07T07:52:12.218Z,46.26
2019-05-07T07:54:19.715Z,46.17
2019-05-07T07:56:56.131Z,45.71
2019-05-07T07:59:12.643Z,45.14
2019-05-07T08:01:42.231Z,45.90
2019-05-07T08:03:49.698Z,45.11
2019-05-07T08:05:56.982Z,45.77
2019-05-07T08:08:04.444Z,45.46
2019-05-07T08:10:12.988Z,45.61
2019-05-07T08:12:22.136Z,46.24
2019-05-07T08:14:29.771Z,45.75
2019-05-07T08:16:37.344Z,45.56
2019-05-07T08:18:44.856Z,45.67
2019-05-07T08:20:52.122Z,45.38
2019-05-07T08:22:59.373Z,45.16
2019-05-07T08:25:08.324Z,44.72
2019-05-07T08:27:15.700Z,44.87
2019-05-07T08:29:22.974Z,44.74
2019-05-07T08:31:46.986Z,43.99
2019-05-07T08:34:03.315Z,43.99
2019-05-07T08:36:18.474Z,44.28
2019-05-07T08:38:25.759Z,43.35
2019-05-07T08:40:33.349Z,43.77
2019-05-07T08:42:41.892Z,43.46
2019-05-07T08:44:59.992Z,43.77
2019-05-07T08:47:29.253Z,43.31
2019-05-07T08:49:40.097Z,44.05
2019-05-07T08:51:51.935Z,44.09
2019-05-07T08:54:05.835Z,43.32
2019-05-07T08:56:13.234Z,42.97
2019-05-07T08:58:22.397Z,41.85
2019-05-07T09:00:32.443Z,42.92
2019-05-07T09:02:39.616Z,41.65
2019-05-07T09:04:46.956Z,41.63
2019-05-07T09:06:54.684Z,41.50
2019-05-07T09:09:02.963Z,41.64
2019-05-07T09:11:10.668Z,41.94
2019-05-07T09:13:18.289Z,42.25
2019-05-07T09:15:25.535Z,41.20
2019-05-07T09:17:32.746Z,41.12
2019-05-07T09:19:48.365Z,39.83
2019-05-07T09:21:49.207Z,39.76
2019-05-07T09:23:56.645Z,39.55
2019-05-07T09:26:04.030Z,39.93
2019-05-07T09:28:11.906Z,39.97
2019-05-07T09:30:32.525Z,39.72
2019-05-07T09:33:05.500Z,39.47
2019-05-07T09:35:16.268Z,39.60
2019-05-07T09:37:26.590Z,39.89
2019-05-07T09:39:34.071Z,38.02
2019-05-07T09:41:41.805Z,38.04
2019-05-07T09:43:49.360Z,38.67
2019-05-07T09:45:57.239Z,38.84
2019-05-07T09:48:05.246Z,39.20
2019-05-07T09:50:12.955Z,39.45
2019-05-07T09:52:22.667Z,39.47
2019-05-07T09:54:29.234Z,39.34
2019-05-07T09:56:36.560Z,39.32
2019-05-07T09:58:43.984Z,37.63
2019-05-07T10:00:51.252Z,38.39
2019-05-07T10:02:58.810Z,37.14
2019-05-07T10:05:06.821Z,35.98
2019-05-07T10:07:14.244Z,37.12
2019-05-07T10:09:22.318Z,37.30
2019-05-07T10:11:36.411Z,38.32
2019-05-07T10:13:48.632Z,38.51
2019-05-07T10:15:56.190Z,38.69
2019-05-07T10:18:14.943Z,38.11
2019-05-07T10:20:24.329Z,38.82
2019-05-07T10:22:32.259Z,37.82
2019-05-07T10:24:41.782Z,37.83
2019-05-07T10:26:49.180Z,38.59
2019-05-07T10:28:57.327Z,39.66
2019-05-07T10:31:04.729Z,40.31
2019-05-07T10:33:12.450Z,39.76
2019-05-07T10:35:20.122Z,39.04
2019-05-07T10:37:27.412Z,39.03
2019-05-07T10:39:34.918Z,38.25
2019-05-07T10:41:42.567Z,39.24
2019-05-07T10:43:51.905Z,38.52
2019-05-07T10:46:18.040Z,39.29
2019-05-07T10:48:42.702Z,37.63
2019-05-07T10:50:51.742Z,38.59
2019-05-07T10:52:59.186Z,38.15
2019-05-07T10:55:06.878Z,38.25
2019-05-07T10:57:14.046Z,38.10
2019-05-07T10:59:22.520Z,38.86
2019-05-07T11:01:38.918Z,38.54
2019-05-07T11:03:46.843Z,38.60
2019-05-07T11:05:54.650Z,37.99
2019-05-07T11:08:02.459Z,37.58
2019-05-07T11:10:12.207Z,37.25
2019-05-07T11:12:19.219Z,37.64
2019-05-07T11:14:26.429Z,38.67
2019-05-07T11:16:38.705Z,38.91
2019-05-07T11:18:51.799Z,38.65
2019-05-07T11:20:59.200Z,39.38
2019-05-07T11:23:06.645Z,39.58
2019-05-07T11:25:14.273Z,38.87
2019-05-07T11:27:22.510Z,38.43
2019-05-07T11:29:30.023Z,38.25
2019-05-07T11:31:37.372Z,37.66
2019-05-07T11:33:44.693Z,38.70
2019-05-07T11:35:52.764Z,39.28
2019-05-07T11:38:03.782Z,39.32
2019-05-07T11:40:13.077Z,39.28
2019-05-07T11:42:45.064Z,38.95
2019-05-07T11:44:54.938Z,39.20
2019-05-07T11:47:18.769Z,39.54
2019-05-07T11:49:32.725Z,38.90
2019-05-07T11:51:45.253Z,38.93
2019-05-07T11:54:12.742Z,39.04
2019-05-07T11:56:21.980Z,39.57
2019-05-07T11:58:29.755Z,38.91
2019-05-07T12:01:12.513Z,38.38
2019-05-07T12:03:22.139Z,38.21
2019-05-07T12:05:29.608Z,38.96
2019-05-07T12:07:36.986Z,38.80
2019-05-07T12:09:44.503Z,39.25
2019-05-07T12:11:52.113Z,40.25
2019-05-07T12:13:59.554Z,40.38
2019-05-07T12:16:07.106Z,40.41
2019-05-07T12:18:14.493Z,40.29
2019-05-07T12:20:22.422Z,40.06
2019-05-07T12:22:47.842Z,40.09
2019-05-07T12:24:55.198Z,39.31
2019-05-07T12:27:02.914Z,39.17
2019-05-07T12:29:11.833Z,40.02
2019-05-07T12:31:38.170Z,40.17
2019-05-07T12:34:05.235Z,38.94
2019-05-07T12:36:13.481Z,39.17
2019-05-07T12:38:21.956Z,39.39
2019-05-07T12:40:32.507Z,40.45
2019-05-07T12:42:42.422Z,40.48
2019-05-07T12:44:49.259Z,40.16
2019-05-07T12:46:56.522Z,40.12
2019-05-07T12:49:04.267Z,39.72
2019-05-07T12:51:12.577Z,39.10
2019-05-07T12:53:42.461Z,38.10
2019-05-07T12:55:56.311Z,37.33
2019-05-07T12:58:03.753Z,36.97
2019-05-07T13:00:32.331Z,37.11
2019-05-07T13:02:46.453Z,36.42
2019-05-07T13:04:53.824Z,36.41
2019-05-07T13:07:08.025Z,36.26
2019-05-07T13:09:15.882Z,35.62
2019-05-07T13:11:23.254Z,36.08
2019-05-07T13:13:32.040Z,36.10
2019-05-07T13:15:39.630Z,36.69
2019-05-07T13:17:47.062Z,37.43
2019-05-07T13:19:54.555Z,37.88
2019-05-07T13:22:05.203Z,37.56
2019-05-07T13:24:18.375Z,37.96
2019-05-07T13:26:24.916Z,37.49
2019-05-07T13:28:32.398Z,37.96
2019-05-07T13:30:43.588Z,38.27
2019-05-07T13:32:52.606Z,38.60
2019-05-07T13:35:02.787Z,39.12
2019-05-07T13:37:15.691Z,38.52
2019-05-07T13:39:48.205Z,38.30
2019-05-07T13:42:04.474Z,37.97
2019-05-07T13:44:40.229Z,37.73
2019-05-07T13:46:49.684Z,38.40
2019-05-07T13:48:57.290Z,38.26
2019-05-07T13:51:05.723Z,38.96
2019-05-07T13:53:13.581Z,38.89
2019-05-07T13:55:21.853Z,39.26
2019-05-07T13:57:29.473Z,39.20
2019-05-07T13:59:37.377Z,38.86
2019-05-07T14:01:55.476Z,39.02
2019-05-07T14:04:04.101Z,38.71
2019-05-07T14:06:13.245Z,38.67
2019-05-07T14:08:23.048Z,38.74
2019-05-07T14:10:33.552Z,39.13
2019-05-07T14:12:39.771Z,38.06
2019-05-07T14:14:47.693Z,39.11
2019-05-07T14:16:55.110Z,38.42
2019-05-07T14:19:04.212Z,37.94
2019-05-07T14:21:13.030Z,39.19
2019-05-07T14:23:21.760Z,38.59
2019-05-07T14:25:29.148Z,37.31
2019-05-07T14:27:36.591Z,37.77
2019-05-07T14:29:44.057Z,37.66
2019-05-07T14:31:58.607Z,36.99
2019-05-07T14:34:18.925Z,37.04
2019-05-07T14:36:42.633Z,37.30
2019-05-07T14:38:52.009Z,37.82
2019-05-07T14:41:00.137Z,37.63
2019-05-07T14:43:13.231Z,37.67
2019-05-07T14:45:23.554Z,37.99
2019-05-07T14:47:30.212Z,37.59
2019-05-07T14:49:37.686Z,37.53
2019-05-07T14:51:45.210Z,37.07
2019-05-07T14:53:52.785Z,38.40
2019-05-07T14:56:00.308Z,37.88
2019-05-07T14:58:07.668Z,38.05
2019-05-07T15:00:16.045Z,37.22
2019-05-07T15:02:23.939Z,37.50
2019-05-07T15:04:31.471Z,38.52
2019-05-07T15:06:39.316Z,37.55
2019-05-07T15:08:47.258Z,37.55
2019-05-07T15:10:55.052Z,37.75
2019-05-07T15:13:02.824Z,36.23
2019-05-07T15:15:12.648Z,36.12
2019-05-07T15:17:39.333Z,36.90
2019-05-07T15:19:47.034Z,37.03
2019-05-07T15:21:58.423Z,35.15
2019-05-07T15:24:05.998Z,36.54
2019-05-07T15:26:13.535Z,35.13
2019-05-07T15:28:22.845Z,35.79
2019-05-07T15:30:37.655Z,35.33
2019-05-07T15:32:45.022Z,35.23
2019-05-07T15:34:52.760Z,35.60
2019-05-07T15:37:01.647Z,35.47
2019-05-07T15:39:09.380Z,35.93
2019-05-07T15:41:17.036Z,35.70
2019-05-07T15:43:24.397Z,36.15
2019-05-07T15:45:32.195Z,36.70
2019-05-07T15:47:44.137Z,36.08
2019-05-07T15:49:51.474Z,36.94
2019-05-07T15:52:01.819Z,37.00
2019-05-07T15:54:09.774Z,36.88
2019-05-07T15:56:17.611Z,36.86
2019-05-07T15:58:24.994Z,36.78
2019-05-07T16:00:33.868Z,36.71
2019-05-07T16:02:45.327Z,36.34
2019-05-07T16:04:53.580Z,36.52
2019-05-07T16:07:05.146Z,36.37
2019-05-07T16:09:12.863Z,36.16
2019-05-07T16:11:23.043Z,35.49
2019-05-07T16:13:32.768Z,36.08
2019-05-07T16:15:42.327Z,35.39
2019-05-07T16:17:58.119Z,35.96
2019-05-07T16:20:06.929Z,35.57
2019-05-07T16:22:19.512Z,35.51
2019-05-07T16:24:26.851Z,35.92
2019-05-07T16:26:34.286Z,35.76
2019-05-07T16:28:41.775Z,35.85
2019-05-07T16:30:49.217Z,35.61
2019-05-07T16:32:56.698Z,36.47
2019-05-07T16:35:05.685Z,35.86
2019-05-07T16:37:14.017Z,35.46
2019-05-07T16:39:22.156Z,35.45
2019-05-07T16:41:31.640Z,35.63
2019-05-07T16:43:39.252Z,36.30
2019-05-07T16:45:47.051Z,36.83
2019-05-07T16:47:55.022Z,36.35
2019-05-07T16:50:04.202Z,35.45
2019-05-07T16:52:12.059Z,35.94
2019-05-07T16:54:19.523Z,36.77
2019-05-07T16:56:27.183Z,34.96
2019-05-07T16:58:42.762Z,35.33
2019-05-07T17:00:53.211Z,35.56
2019-05-07T17:03:02.228Z,35.67
2019-05-07T17:05:13.999Z,36.10
2019-05-07T17:07:22.069Z,33.92
2019-05-07T17:09:32.226Z,34.51
2019-05-07T17:11:39.947Z,34.10
2019-05-07T17:13:47.685Z,33.59
2019-05-07T17:15:56.481Z,34.05
2019-05-07T17:18:03.937Z,33.31
2019-05-07T17:20:12.729Z,34.66
2019-05-07T17:22:22.600Z,35.26
2019-05-07T17:24:29.335Z,36.45
2019-05-07T17:26:36.847Z,36.15
2019-05-07T17:28:44.639Z,36.58
2019-05-07T17:30:52.526Z,36.57
2019-05-07T17:33:01.943Z,37.73
2019-05-07T17:35:09.267Z,38.20
2019-05-07T17:37:16.586Z,38.23
2019-05-07T17:39:24.205Z,38.21
2019-05-07T17:41:32.387Z,37.63
2019-05-07T17:43:40.387Z,38.15
2019-05-07T17:45:48.429Z,37.83
2019-05-07T17:47:56.224Z,38.86
2019-05-07T17:50:05.777Z,38.48
2019-05-07T17:52:13.091Z,38.56
2019-05-07T17:54:22.462Z,38.46
2019-05-07T17:56:31.916Z,37.74
2019-05-07T17:58:38.999Z,38.95
2019-05-07T18:00:48.806Z,38.70
2019-05-07T18:03:13.802Z,39.01
2019-05-07T18:05:21.501Z,39.45
2019-05-07T18:07:28.988Z,39.46
2019-05-07T18:09:36.598Z,39.53
2019-05-07T18:11:44.158Z,40.83
2019-05-07T18:13:52.691Z,40.11
2019-05-07T18:16:07.007Z,39.71
2019-05-07T18:18:15.612Z,38.82
2019-05-07T18:20:23.212Z,39.55
2019-05-07T18:22:32.546Z,39.58
2019-05-07T18:24:41.928Z,39.60
2019-05-07T18:26:49.570Z,39.76
2019-05-07T18:28:57.002Z,40.25
2019-05-07T18:31:04.528Z,40.69
2019-05-07T18:33:30.088Z,40.75
2019-05-07T18:35:37.557Z,40.73
2019-05-07T18:37:54.008Z,41.31
2019-05-07T18:40:02.545Z,41.80
2019-05-07T18:42:10.290Z,41.81
2019-05-07T18:44:17.850Z,41.60
2019-05-07T18:46:25.385Z,41.39
2019-05-07T18:48:32.760Z,41.90
2019-05-07T18:50:41.945Z,42.06
2019-05-07T18:52:49.574Z,42.06
2019-05-07T18:54:57.366Z,42.32
2019-05-07T18:57:05.341Z,42.77
2019-05-07T18:59:13.904Z,42.53
2019-05-07T19:01:23.739Z,42.74
2019-05-07T19:03:32.472Z,42.89
2019-05-07T19:05:42.298Z,42.87
2019-05-07T19:08:02.388Z,43.09
2019-05-07T19:09:59.088Z,43.56
2019-05-07T19:12:08.037Z,43.58
2019-05-07T19:14:15.472Z,43.80
2019-05-07T19:16:23.165Z,44.14
2019-05-07T19:18:32.209Z,44.40
2019-05-07T19:20:42.000Z,44.51
2019-05-07T19:22:51.724Z,44.42
2019-05-07T19:24:59.742Z,44.72
2019-05-07T19:27:07.898Z,44.98
2019-05-07T19:29:15.805Z,44.97
2019-05-07T19:31:23.415Z,44.79
2019-05-07T19:33:32.503Z,44.53
2019-05-07T19:35:41.884Z,45.01
2019-05-07T19:37:49.486Z,45.44
2019-05-07T19:39:56.954Z,45.70
2019-05-07T19:42:04.484Z,46.17
2019-05-07T19:44:12.773Z,46.40
2019-05-07T19:46:22.679Z,46.81
2019-05-07T19:48:32.152Z,47.25
2019-05-07T19:50:39.074Z,48.76
2019-05-07T19:52:46.551Z,49.14
2019-05-07T19:55:00.903Z,49.10
2019-05-07T19:57:04.197Z,49.79
2019-05-07T19:59:12.613Z,50.50
2019-05-07T20:01:24.680Z,51.00
2019-05-07T20:03:32.420Z,50.76
2019-05-07T20:05:41.945Z,51.08
2019-05-07T20:07:53.351Z,51.53
2019-05-07T20:09:59.204Z,51.64
2019-05-07T20:12:08.110Z,52.08
2019-05-07T20:14:15.895Z,51.85
2019-05-07T20:16:23.854Z,51.50
2019-05-07T20:18:33.092Z,52.30
2019-05-07T20:20:42.403Z,52.51
2019-05-07T20:22:51.747Z,53.04
2019-05-07T20:25:12.378Z,53.32
2019-05-07T20:27:08.517Z,53.60
2019-05-07T20:29:16.053Z,53.61
2019-05-07T20:31:23.546Z,54.36
2019-05-07T20:33:33.072Z,54.52
2019-05-07T20:35:41.848Z,54.50
2019-05-07T20:37:49.203Z,52.87
2019-05-07T20:39:56.699Z,53.90
2019-05-07T20:42:04.305Z,54.54
2019-05-07T20:44:12.127Z,54.54
2019-05-07T20:46:20.065Z,55.47
2019-05-07T20:48:28.019Z,55.13
2019-05-07T20:50:35.466Z,54.99
2019-05-07T20:52:43.315Z,55.34
2019-05-07T20:55:06.792Z,55.01
2019-05-07T20:57:23.168Z,56.21
2019-05-07T20:59:32.795Z,54.80
2019-05-07T21:01:41.948Z,54.40
2019-05-07T21:03:52.576Z,55.25
2019-05-07T21:05:59.364Z,55.52
2019-05-07T21:08:06.654Z,55.92
2019-05-07T21:10:14.324Z,55.81
2019-05-07T21:12:22.467Z,56.39
2019-05-07T21:14:32.271Z,56.82
2019-05-07T21:16:39.270Z,56.53
2019-05-07T21:18:46.689Z,56.60
2019-05-07T21:20:54.140Z,57.28
2019-05-07T21:23:02.706Z,57.00
2019-05-07T21:25:11.988Z,56.73
2019-05-07T21:27:19.581Z,57.69
2019-05-07T21:29:26.987Z,57.67
2019-05-07T21:31:34.415Z,57.79
2019-05-07T21:33:42.890Z,57.73
2019-05-07T21:35:52.278Z,58.55
2019-05-07T21:38:00.061Z,57.77
2019-05-07T21:40:07.534Z,57.22
2019-05-07T21:42:15.785Z,57.59
2019-05-07T21:44:25.336Z,59.07
2019-05-07T21:46:32.970Z,59.50
2019-05-07T21:48:40.565Z,60.02
2019-05-07T21:50:47.926Z,59.93
2019-05-07T21:53:02.707Z,59.07
2019-05-07T21:55:34.592Z,59.11
2019-05-07T21:57:48.876Z,59.42
2019-05-07T22:00:14.224Z,59.94
2019-05-07T22:02:24.729Z,60.74
2019-05-07T22:04:32.176Z,60.60
2019-05-07T22:06:39.645Z,60.20
2019-05-07T22:08:47.084Z,60.27
2019-05-07T22:10:54.454Z,61.35
2019-05-07T22:13:03.256Z,61.03
2019-05-07T22:15:12.991Z,61.37
2019-05-07T22:17:21.907Z,61.15
2019-05-07T22:19:33.540Z,62.23
2019-05-07T22:21:38.756Z,62.64
2019-05-07T22:23:46.373Z,61.87
2019-05-07T22:25:53.974Z,62.22
2019-05-07T22:28:01.906Z,62.03
2019-05-07T22:30:13.194Z,62.97
2019-05-07T22:32:37.127Z,62.47
2019-05-07T22:34:58.175Z,62.50
2019-05-07T22:37:05.655Z,62.80
2019-05-07T22:39:13.076Z,62.46
2019-05-07T22:41:22.421Z,62.36
2019-05-07T22:43:31.706Z,61.70
2019-05-07T22:45:38.535Z,62.23
2019-05-07T22:47:45.948Z,62.17
2019-05-07T22:49:54.012Z,62.20
2019-05-07T22:52:02.327Z,61.94
2019-05-07T22:54:11.862Z,62.07
2019-05-07T22:56:31.977Z,62.57
2019-05-07T22:58:42.169Z,63.05
2019-05-07T23:00:57.456Z,63.08
2019-05-07T23:03:05.143Z,63.20
2019-05-07T23:05:12.863Z,63.47
2019-05-07T23:07:22.320Z,63.11
2019-05-07T23:09:29.300Z,62.03
2019-05-07T23:11:36.722Z,62.65
2019-05-07T23:13:44.112Z,63.28
2019-05-07T23:15:53.726Z,60.95
2019-05-07T23:18:04.181Z,63.12
2019-05-07T23:20:10.486Z,63.52
2019-05-07T23:22:17.846Z,63.54
2019-05-07T23:24:25.428Z,63.85
2019-05-07T23:26:46.579Z,64.36
2019-05-07T23:28:42.004Z,64.61
2019-05-07T23:30:51.695Z,65.39
2019-05-07T23:32:58.295Z,64.58
2019-05-07T23:35:05.702Z,64.64
2019-05-07T23:37:13.004Z,63.67
2019-05-07T23:39:22.111Z,64.07
2019-05-07T23:41:35.490Z,65.24
2019-05-07T23:43:42.810Z,65.69
2019-05-07T23:45:50.094Z,65.37
2019-05-07T23:47:57.420Z,64.87
2019-05-07T23:50:04.887Z,64.40
2019-05-07T23:52:12.928Z,63.91
2019-05-07T23:54:22.711Z,65.18
2019-05-07T23:56:29.231Z,64.66
2019-05-07T23:58:36.529Z,65.11
